Time;durP1;ratioP1;P1;durP2;ratioP2;P2;SDS_P1;SDS_P2;PMS_P1;PMS_P2;Temp;Humidity;BMP_temperature;BMP_pressure;BME280_temperature;BME280_humidity;BME280_pressure;Samples;Min_cycle;Max_cycle;Signal;HPM_P1;HPM_P2
2021/10/11 00:01:29;;;;;;;22.63;14.35;;;;;;;5.52;100.00;101415.31;5015886;28;20552;-73
2021/10/11 00:04:13;;;;;;;25.55;14.05;;;;;;;-139.48;100.00;101415.31;5015235;28;20132;-73
2021/10/11 00:06:56;;;;;;;21.35;13.73;;;;;;;5.47;100.00;101425.28;5014915;28;20501;-73
2021/10/11 00:09:40;;;;;;;23.80;13.43;;;;;;;5.47;100.00;101425.28;5015512;28;20065;-73
2021/10/11 00:12:25;;;;;;;23.02;14.02;;;;;;;5.45;100.00;101428.00;5014468;28;20168;-72
2021/10/11 00:15:09;;;;;;;21.52;13.55;;;;;;;5.43;100.00;101429.88;5014661;28;20049;-73
2021/10/11 00:17:55;;;;;;;24.77;14.80;;;;;;;5.42;100.00;101422.88;5015709;28;20049;-73
2021/10/11 00:20:39;;;;;;;20.88;13.73;;;;;;;5.39;100.00;101436.28;5014088;28;20111;-73
2021/10/11 00:23:23;;;;;;;20.83;13.17;;;;;;;-139.48;100.00;61774.03;5063838;23;1076994;-72
2021/10/11 00:26:06;;;;;;;27.95;15.52;;;;;;;5.25;100.00;101419.47;4975388;28;20853;-72
2021/10/11 00:28:50;;;;;;;22.33;14.63;;;;;;;5.25;83.12;78787.81;4976409;28;20046;-72
2021/10/11 00:31:34;;;;;;;21.08;14.25;;;;;;;5.25;100.00;101419.47;4976418;28;20074;-72
2021/10/11 00:34:18;;;;;;;20.83;14.05;;;;;;;5.19;100.00;101431.22;4975235;28;20126;-72
2021/10/11 00:37:03;;;;;;;26.17;14.63;;;;;;;5.18;100.00;101424.22;4976045;28;20108;-71
2021/10/11 00:39:47;;;;;;;24.02;14.38;;;;;;;5.18;82.72;101424.22;4961617;28;20049;-71
2021/10/11 00:42:31;;;;;;;21.73;13.57;;;;;;;-139.48;100.00;61774.03;4974819;28;20060;-71
2021/10/11 00:45:15;;;;;;;19.27;13.25;;;;;;;-139.48;100.00;101424.22;4961481;28;20049;-72
2021/10/11 00:47:59;;;;;;;25.83;14.20;;;;;;;-139.48;100.00;61774.03;4976050;28;20119;-72
2021/10/11 00:50:44;;;;;;;26.30;15.35;;;;;;;5.02;100.00;101422.50;4974518;28;20537;-71
2021/10/11 00:53:28;;;;;;;22.92;14.70;;;;;;;-139.48;100.00;61774.03;4974777;28;20085;-72
2021/10/11 00:56:12;;;;;;;19.77;13.77;;;;;;;-139.48;100.00;61774.03;4974947;28;20060;-72
2021/10/11 00:58:57;;;;;;;22.85;13.77;;;;;;;-139.48;100.00;61774.03;4974697;28;20077;-72
2021/10/11 01:01:41;;;;;;;23.40;14.57;;;;;;;-139.48;100.00;61774.03;4975808;28;20054;-71
2021/10/11 01:04:25;;;;;;;23.88;13.52;;;;;;;-139.48;100.00;61774.03;4975561;28;20058;-72
2021/10/11 01:07:10;;;;;;;23.85;14.05;;;;;;;-139.48;100.00;61774.03;4974682;28;20069;-71
2021/10/11 01:09:54;;;;;;;21.70;13.80;;;;;;;-139.48;100.00;61774.03;4974637;28;20105;-72
2021/10/11 01:12:38;;;;;;;26.13;13.30;;;;;;;-139.48;100.00;61774.03;4975822;28;20092;-72
2021/10/11 01:15:22;;;;;;;23.67;14.77;;;;;;;-139.48;100.00;61774.03;4974269;28;20049;-71
2021/10/11 01:18:06;;;;;;;23.33;14.23;;;;;;;-139.48;100.00;61774.03;4960952;28;20065;-72
2021/10/11 01:20:50;;;;;;;24.58;14.52;;;;;;;-139.48;100.00;61774.03;4974459;28;20510;-72
2021/10/11 01:23:34;;;;;;;21.92;13.15;;;;;;;-139.48;100.00;61774.03;4974327;28;20085;-72
2021/10/11 01:26:19;;;;;;;19.70;13.00;;;;;;;-139.48;100.00;61774.03;4975133;28;20479;-72
2021/10/11 01:29:04;;;;;;;20.75;12.80;;;;;;;-139.48;100.00;61774.03;4987787;28;20054;-72
2021/10/11 01:31:49;;;;;;;23.42;13.93;;;;;;;-139.48;100.00;61774.03;4960633;28;20515;-71
2021/10/11 01:34:33;;;;;;;22.50;13.80;;;;;;;-139.48;100.00;61774.03;4974242;28;20049;-72
2021/10/11 01:37:17;;;;;;;19.35;13.55;;;;;;;-139.48;100.00;61774.03;4960507;28;20054;-72
2021/10/11 01:40:07;;;;;;;21.15;13.43;;;;;;;-139.48;100.00;61774.03;4974191;28;20112;-71
2021/10/11 01:42:52;;;;;;;20.80;13.93;;;;;;;-139.48;100.00;61774.03;4974031;28;20058;-72
2021/10/11 01:45:37;;;;;;;23.92;13.77;;;;;;;-139.48;100.00;61774.03;4975076;28;20543;-72
2021/10/11 01:48:21;;;;;;;29.92;15.00;;;;;;;-139.48;100.00;61774.03;4974014;28;20045;-72
2021/10/11 01:51:05;;;;;;;21.52;14.10;;;;;;;-139.48;100.00;61774.03;4973834;28;20070;-72
2021/10/11 01:53:50;;;;;;;22.83;14.18;;;;;;;-139.48;100.00;61774.03;4987404;28;20054;-71
2021/10/11 01:56:33;;;;;;;22.35;14.65;;;;;;;-139.48;100.00;61774.03;4973913;28;20510;-72
2021/10/11 01:59:17;;;;;;;21.52;14.23;;;;;;;-139.48;100.00;61774.03;4973941;28;20587;-72
2021/10/11 02:02:03;;;;;;;24.38;14.73;;;;;;;-139.48;100.00;61774.03;4959653;28;20559;-72
2021/10/11 02:04:47;;;;;;;21.80;14.60;;;;;;;-139.48;100.00;61774.03;4973852;28;20061;-72
2021/10/11 02:07:31;;;;;;;21.85;13.60;;;;;;;-139.48;100.00;61774.03;4974052;28;20400;-72
2021/10/11 02:10:15;;;;;;;21.65;13.50;;;;;;;-139.48;100.00;61774.03;4987782;28;20053;-72
2021/10/11 02:12:58;;;;;;;21.38;14.27;;;;;;;-139.48;100.00;61774.03;4973567;28;20118;-71
2021/10/11 02:15:43;;;;;;;24.45;13.95;;;;;;;-139.48;100.00;61774.03;4973429;28;20127;-72
2021/10/11 02:18:27;;;;;;;20.02;12.40;;;;;;;-139.48;100.00;61774.03;4973322;28;20054;-72
2021/10/11 02:21:11;;;;;;;19.25;13.00;;;;;;;-139.48;100.00;61774.03;4974405;28;20189;-72
2021/10/11 02:23:54;;;;;;;23.40;13.82;;;;;;;-139.48;100.00;61774.03;4974249;28;20053;-71
2021/10/11 02:26:38;;;;;;;22.08;13.90;;;;;;;-139.48;100.00;61774.03;4973343;28;20054;-71
2021/10/11 02:29:22;;;;;;;25.17;13.35;;;;;;;-139.48;100.00;61774.03;4960040;28;20101;-71
2021/10/11 02:32:06;;;;;;;21.27;13.50;;;;;;;-139.48;100.00;61774.03;4987234;28;20074;-72
2021/10/11 02:34:50;;;;;;;21.40;13.95;;;;;;;-139.48;100.00;61774.03;4974534;28;20050;-72
2021/10/11 02:37:34;;;;;;;25.90;14.65;;;;;;;-139.48;100.00;61774.03;4987052;28;20049;-71
2021/10/11 02:40:18;;;;;;;21.42;14.27;;;;;;;4.05;100.00;101366.91;4974702;28;20053;-72
2021/10/11 02:43:02;;;;;;;;;;;;;;;4.02;100.00;101361.75;4973681;28;20127;-72
2021/10/11 02:45:46;;;;;;;23.90;13.73;;;;;;;3.99;100.00;101361.91;4973282;28;19920;-71
2021/10/11 02:48:30;;;;;;;;;;;;;;;3.99;100.00;101359.28;4973634;28;20097;-72
2021/10/11 02:51:17;;;;;;;25.57;14.20;;;;;;;3.97;100.00;101358.50;4973548;28;19920;-72
2021/10/11 02:54:02;;;;;;;19.42;12.73;;;;;;;3.95;100.00;101353.31;4973653;28;20101;-71
2021/10/11 02:56:46;;;;;;;22.73;13.95;;;;;;;3.94;100.00;101348.97;4973315;28;20054;-71
2021/10/11 02:59:29;;;;;;;20.08;13.35;;;;;;;3.93;100.00;101351.66;4959940;28;20046;-71
2021/10/11 03:02:13;;;;;;;24.05;13.82;;;;;;;3.90;100.00;101351.81;4973261;28;20109;-72
2021/10/11 03:04:57;;;;;;;22.40;12.73;;;;;;;3.88;100.00;101353.69;4973052;28;20057;-72
2021/10/11 03:07:41;;;;;;;23.85;13.23;;;;;;;3.83;100.00;101353.91;4973007;28;20058;-72
2021/10/11 03:10:25;;;;;;;22.25;14.00;;;;;;;3.79;100.00;101359.41;4973530;28;20081;-72
2021/10/11 03:13:09;;;;;;;20.83;13.10;;;;;;;3.74;100.00;101361.44;4973110;28;20101;-72
2021/10/11 03:15:53;;;;;;;21.30;13.05;;;;;;;3.72;100.00;101365.91;4977582;28;20487;-72
2021/10/11 03:18:37;;;;;;;18.73;12.60;;;;;;;3.68;100.00;101364.38;4963064;28;20483;-71
2021/10/11 03:21:21;;;;;;;22.90;13.63;;;;;;;3.67;100.00;101362.66;4977487;28;20057;-72
2021/10/11 03:24:05;;;;;;;20.27;13.77;;;;;;;3.70;100.00;101366.00;4976516;28;20109;-72
2021/10/11 03:26:49;;;;;;;25.38;14.68;;;;;;;3.70;100.00;101354.59;4976616;28;20053;-72
2021/10/11 03:29:33;;;;;;;23.20;13.73;;;;;;;3.69;100.00;101363.44;4977420;28;20053;-72
2021/10/11 03:32:17;;;;;;;21.83;13.65;;;;;;;3.67;100.00;101370.56;4962767;28;20097;-72
2021/10/11 03:35:01;;;;;;;21.45;13.90;;;;;;;3.66;100.00;101363.59;4976183;28;20054;-72
2021/10/11 03:37:46;;;;;;;18.77;13.50;;;;;;;3.67;100.00;101368.78;4989929;28;20464;-71
2021/10/11 03:40:30;;;;;;;21.45;13.60;;;;;;;3.68;100.00;101372.28;4976383;28;20182;-72
2021/10/11 03:43:14;;;;;;;22.35;13.95;;;;;;;3.65;100.00;101382.97;4976280;28;20528;-71
2021/10/11 03:45:58;;;;;;;23.30;13.43;;;;;;;3.63;100.00;101392.72;4962844;28;20108;-71
2021/10/11 03:48:42;;;;;;;21.98;13.20;;;;;;;3.62;100.00;101394.53;4989545;28;20467;-72
2021/10/11 03:51:26;;;;;;;22.70;13.68;;;;;;;3.64;100.00;101397.94;4962762;28;20053;-72
2021/10/11 03:54:10;;;;;;;21.75;14.23;;;;;;;3.61;100.00;101402.50;4976049;28;20050;-69
2021/10/11 03:56:54;;;;;;;22.67;13.18;;;;;;;3.62;100.00;101398.91;4962370;28;20053;-71
2021/10/11 03:59:38;;;;;;;21.58;13.35;;;;;;;3.65;100.00;101380.34;4976726;28;20053;-71
2021/10/11 04:02:23;;;;;;;22.80;14.38;;;;;;;3.62;100.00;101378.69;4961994;28;20150;-72
2021/10/11 04:05:08;;;;;;;21.33;13.07;;;;;;;3.63;100.00;101379.53;4975763;28;20177;-72
2021/10/11 04:07:54;;;;;;;24.05;14.13;;;;;;;3.62;100.00;101372.56;4975896;28;20420;-71
2021/10/11 04:10:58;;;;;;;26.13;15.65;;;;;;;3.59;100.00;101372.72;4975509;28;20057;-71
2021/10/11 04:13:42;;;;;;;28.17;16.23;;;;;;;3.69;100.00;101376.63;4978090;28;20070;-72
2021/10/11 04:16:26;;;;;;;24.83;15.43;;;;;;;3.66;100.00;101366.22;4975404;28;20054;-72
2021/10/11 04:19:10;;;;;;;25.17;15.15;;;;;;;3.69;100.00;101366.06;4975911;28;20275;-72
2021/10/11 04:21:54;;;;;;;26.65;14.52;;;;;;;3.74;100.00;101361.44;4961949;28;20178;-72
2021/10/11 04:24:38;;;;;;;24.70;15.20;;;;;;;3.71;100.00;101364.19;4975333;28;20058;-72
2021/10/11 04:27:22;;;;;;;28.35;15.02;;;;;;;3.68;100.00;101369.63;4988376;28;20098;-72
2021/10/11 04:30:07;;;;;;;23.27;14.95;;;;;;;3.69;100.00;101366.94;4975437;28;20062;-72
2021/10/11 04:32:51;;;;;;;68.68;18.45;;;;;;;3.75;100.00;101368.41;4961642;28;20045;-72
2021/10/11 04:35:35;;;;;;;30.60;16.73;;;;;;;3.76;100.00;101359.56;4961704;28;20054;-72
2021/10/11 04:38:19;;;;;;;28.77;17.08;;;;;;;3.83;100.00;101371.50;4975267;28;20069;-71
2021/10/11 04:41:04;;;;;;;25.70;15.57;;;;;;;3.91;100.00;101364.06;4975184;28;20117;-72
2021/10/11 04:43:49;;;;;;;24.90;15.75;;;;;;;3.93;100.00;101367.50;4974934;28;20054;-71
2021/10/11 04:46:33;;;;;;;25.33;15.10;;;;;;;4.00;100.00;101361.84;4961758;28;20105;-72
2021/10/11 04:49:17;;;;;;;26.98;15.77;;;;;;;4.06;100.00;101374.72;4974827;28;20419;-72
2021/10/11 04:52:01;;;;;;;22.60;13.90;;;;;;;4.08;100.00;101375.50;4988743;28;20054;-72
2021/10/11 04:54:45;;;;;;;18.50;12.75;;;;;;;4.16;100.00;101393.59;4961077;28;20514;-71
2021/10/11 04:57:29;;;;;;;22.92;13.07;;;;;;;4.20;100.00;101392.50;4975142;28;20057;-72
2021/10/11 05:00:13;;;;;;;23.88;15.25;;;;;;;4.25;100.00;101398.44;4975613;28;20535;-72
2021/10/11 05:02:57;;;;;;;33.25;16.70;;;;;;;4.32;100.00;101403.31;4961171;28;20475;-72
2021/10/11 05:05:41;;;;;;;57.47;20.85;;;;;;;4.33;100.00;101398.88;4975787;28;20150;-71
2021/10/11 05:08:25;;;;;;;57.25;18.95;;;;;;;4.33;100.00;101393.59;4975379;28;20045;-72
2021/10/11 05:11:11;;;;;;;63.80;20.13;;;;;;;4.39;100.00;101395.94;4960732;28;20101;-72
2021/10/11 05:13:55;;;;;;;104.32;19.85;;;;;;;4.50;100.00;101401.50;4974548;28;20049;-71
2021/10/11 05:16:40;;;;;;;87.15;20.35;;;;;;;4.55;100.00;101396.84;4974208;28;20419;-72
2021/10/11 05:19:27;;;;;;;67.88;20.33;;;;;;;4.60;100.00;101400.97;4960876;28;20448;-72
2021/10/11 05:22:12;;;;;;;63.80;19.42;;;;;;;4.57;100.00;101403.75;4975272;28;20157;-71
2021/10/11 05:24:55;;;;;;;79.25;19.65;;;;;;;4.60;100.00;101408.03;4975406;28;20053;-72
2021/10/11 05:27:39;;;;;;;56.17;19.55;;;;;;;4.60;100.00;101406.25;4960500;28;20544;-72
2021/10/11 05:30:23;;;;;;;90.60;21.40;;;;;;;4.66;100.00;101403.28;4974279;28;20563;-72
2021/10/11 05:33:08;;;;;;;108.85;21.00;;;;;;;4.66;100.00;101391.88;4960645;28;20150;-71
2021/10/11 05:35:53;;;;;;;88.78;17.83;;;;;;;4.67;100.00;101404.16;4974036;28;20100;-72
2021/10/11 05:38:37;;;;;;;72.13;19.83;;;;;;;4.74;100.00;101408.16;4960634;28;20082;-72
2021/10/11 05:41:21;;;;;;;39.58;19.95;;;;;;;-139.48;100.00;61774.03;4960712;28;20053;-72
2021/10/11 05:44:05;;;;;;;90.63;21.58;;;;;;;-139.48;100.00;61774.03;4973714;28;20052;-71
2021/10/11 05:46:49;;;;;;;114.43;19.77;;;;;;;-139.48;100.00;61774.03;4975213;28;20105;-71
2021/10/11 05:49:34;;;;;;;33.80;17.75;;;;;;;-139.48;100.00;61774.03;4960450;28;20058;-71
2021/10/11 05:52:18;;;;;;;38.63;19.40;;;;;;;-139.48;100.00;61774.03;4987413;28;20118;-72
2021/10/11 05:55:02;;;;;;;42.38;18.80;;;;;;;-139.48;100.00;61774.03;4974682;28;20058;-72
2021/10/11 05:57:46;;;;;;;61.25;16.40;;;;;;;-139.48;100.00;61774.03;4975177;28;20094;-72
2021/10/11 06:00:30;;;;;;;74.93;17.65;;;;;;;-139.48;100.00;61774.03;4960246;28;20053;-72
2021/10/11 06:03:14;;;;;;;62.78;16.42;;;;;;;-139.48;100.00;61774.03;4960194;28;20519;-72
2021/10/11 06:05:58;;;;;;;25.55;15.98;;;;;;;-139.48;100.00;61774.03;4974838;28;20526;-71
2021/10/11 06:08:41;;;;;;;47.33;14.63;;;;;;;-139.48;100.00;61774.03;4973478;28;20049;-72
2021/10/11 06:11:25;;;;;;;52.58;16.20;;;;;;;-139.48;100.00;61774.03;4973572;28;20515;-71
2021/10/11 06:14:09;;;;;;;84.55;17.30;;;;;;;-139.48;100.00;61774.03;4974357;28;20570;-71
2021/10/11 06:16:53;;;;;;;46.95;15.38;;;;;;;4.61;100.00;101425.56;4973653;28;20058;-71
2021/10/11 06:19:37;;;;;;;37.08;15.52;;;;;;;4.71;100.00;101426.81;4973800;28;20077;-71
2021/10/11 06:22:21;;;;;;;;;;;;;;;4.66;100.00;101424.41;4960375;28;20050;-71
2021/10/11 06:25:05;;;;;;;90.22;18.67;;;;;;;4.71;100.00;101419.75;5029133;23;19928;-69
2021/10/11 06:27:50;;;;;;;52.55;18.73;;;;;;;4.73;100.00;101433.72;4998404;28;20073;-69
2021/10/11 06:30:34;;;;;;;82.43;20.95;;;;;;;4.78;100.00;101433.50;5012606;28;20060;-69
2021/10/11 06:33:21;;;;;;;51.70;17.10;;;;;;;4.77;100.00;101431.78;4998671;28;20073;-69
2021/10/11 06:36:05;;;;;;;86.20;19.63;;;;;;;4.89;100.00;101420.56;5012290;28;20079;-69
2021/10/11 06:38:49;;;;;;;95.25;20.48;;;;;;;5.03;100.00;101419.75;5012366;28;20103;-69
2021/10/11 06:41:33;;;;;;;73.25;19.80;;;;;;;5.11;100.00;101419.38;4998605;28;20422;-69
2021/10/11 06:44:17;;;;;;;69.82;20.98;;;;;;;5.23;100.00;101414.25;4998520;28;20470;-69
2021/10/11 06:47:01;;;;;;;87.90;21.52;;;;;;;5.31;100.00;101419.97;4998518;28;20104;-69
2021/10/11 06:49:46;;;;;;;51.92;20.25;;;;;;;5.37;100.00;101418.78;5000581;28;20430;-69
2021/10/11 06:52:30;;;;;;;55.25;21.65;;;;;;;5.48;100.00;101427.84;5017486;28;20191;-69
2021/10/11 06:55:14;;;;;;;41.30;23.48;;;;;;;-139.48;100.00;61774.03;5002063;28;20422;-69
2021/10/11 06:57:58;;;;;;;46.42;22.17;;;;;;;-139.48;100.00;61774.03;5015909;28;20109;-69
2021/10/11 07:00:42;;;;;;;40.28;20.70;;;;;;;5.99;100.00;101437.34;5016085;28;20057;-69
2021/10/11 07:03:26;;;;;;;43.47;20.95;;;;;;;6.21;100.00;101449.25;5017023;28;20133;-69
2021/10/11 07:06:19;;;;;;;43.58;20.15;;;;;;;6.24;100.00;101449.06;5015663;28;20065;-68
2021/10/11 07:09:03;;;;;;;45.75;18.80;;;;;;;-139.48;100.00;61774.03;5003289;28;20453;-70
2021/10/11 07:11:50;;;;;;;29.58;18.02;;;;;;;-139.48;100.00;61774.03;5016932;28;20501;-70
2021/10/11 07:14:34;;;;;;;55.67;17.88;;;;;;;-139.48;100.00;61774.03;5002114;28;20096;-70
2021/10/11 07:17:18;;;;;;;65.07;18.70;;;;;;;-139.48;100.00;61774.03;5015534;28;20125;-70
2021/10/11 07:20:04;;;;;;;27.55;17.52;;;;;;;-139.48;100.00;61774.03;5016549;28;20076;-69
2021/10/11 07:22:48;;;;;;;25.27;17.08;;;;;;;-139.48;100.00;61774.03;5016767;28;20135;-70
2021/10/11 07:25:32;;;;;;;27.88;17.70;;;;;;;-139.48;100.00;61774.03;5015548;28;20053;-70
2021/10/11 07:28:16;;;;;;;28.35;17.85;;;;;;;-139.48;100.00;61774.03;5001561;28;20057;-70
2021/10/11 07:31:00;;;;;;;27.67;17.15;;;;;;;-139.48;100.00;61774.03;5016515;28;20148;-70
2021/10/11 07:33:44;;;;;;;34.17;17.00;;;;;;;-139.48;100.00;61774.03;5015414;28;20045;-70
2021/10/11 07:36:27;;;;;;;27.50;17.30;;;;;;;-139.48;100.00;61774.03;5001810;28;20095;-69
2021/10/11 07:39:11;;;;;;;26.60;17.08;;;;;;;-139.48;100.00;61774.03;5015326;28;20398;-70
2021/10/11 07:41:58;;;;;;;26.42;16.88;;;;;;;-139.48;100.00;61774.03;5015130;28;20048;-70
2021/10/11 07:44:42;;;;;;;25.75;17.10;;;;;;;-139.48;100.00;61774.03;5015180;28;20056;-70
2021/10/11 07:47:26;;;;;;;28.85;18.15;;;;;;;-139.48;100.00;61774.03;5001576;28;20064;-70
2021/10/11 07:50:10;;;;;;;26.08;16.65;;;;;;;8.41;100.00;101484.91;5015128;28;20049;-70
2021/10/11 07:52:53;;;;;;;29.95;17.23;;;;;;;-139.48;100.00;-15969.66;5001161;28;20053;-70
2021/10/11 07:55:37;;;;;;;27.20;17.20;;;;;;;8.01;100.00;101489.28;5015400;28;20096;-70
2021/10/11 07:58:21;;;;;;;29.08;19.58;;;;;;;8.01;100.00;21327.03;5015337;28;20057;-70
2021/10/11 08:01:05;;;;;;;28.77;17.40;;;;;;;8.41;100.00;101482.25;5013837;28;20103;-70
2021/10/11 08:03:49;;;;;;;28.33;18.17;;;;;;;8.80;100.00;101482.25;5014624;28;20045;-70
2021/10/11 08:06:33;;;;;;;28.52;18.75;;;;;;;9.03;100.00;101490.38;5014555;28;20137;-66
2021/10/11 08:09:17;;;;;;;28.15;19.10;;;;;;;9.14;100.00;101494.94;5014754;28;20108;-70
2021/10/11 08:12:01;;;;;;;27.58;18.33;;;;;;;9.39;100.00;101501.09;5014523;28;20176;-69
2021/10/11 08:14:45;;;;;;;25.45;18.27;;;;;;;9.39;100.00;101492.28;5000608;28;20526;-71
2021/10/11 08:17:29;;;;;;;28.83;19.50;;;;;;;9.52;100.00;101501.09;5015654;28;20092;-70
2021/10/11 08:20:13;;;;;;;28.40;19.17;;;;;;;9.99;100.00;101504.75;5014483;28;20056;-71
2021/10/11 08:22:57;;;;;;;31.15;19.65;;;;;;;10.08;97.77;101511.28;5000408;28;20054;-70
2021/10/11 08:25:41;;;;;;;28.35;19.20;;;;;;;9.89;99.56;101502.88;5013993;28;20549;-70
2021/10/11 08:28:24;;;;;;;25.90;19.23;;;;;;;10.19;98.05;101511.34;5014282;28;20104;-70
2021/10/11 08:31:08;;;;;;;26.90;18.85;;;;;;;9.78;99.61;101500.97;5014351;28;20129;-70
2021/10/11 08:33:52;;;;;;;29.27;18.00;;;;;;;9.93;100.00;101491.03;5000514;28;20049;-68
2021/10/11 08:36:36;;;;;;;30.65;19.25;;;;;;;10.08;99.37;101489.97;5014316;28;20061;-71
2021/10/11 08:39:20;;;;;;;27.98;17.67;;;;;;;10.08;0.00;78204.28;5013991;28;20087;-70
2021/10/11 08:42:05;;;;;;;26.85;18.25;;;;;;;9.60;100.00;101486.28;5014138;28;20072;-70
2021/10/11 08:44:49;;;;;;;26.00;18.45;;;;;;;10.07;100.00;101485.56;5013794;28;20148;-69
2021/10/11 08:47:33;;;;;;;28.83;18.45;;;;;;;10.51;100.00;101479.53;5015004;28;20057;-70
2021/10/11 08:50:17;;;;;;;25.08;18.17;;;;;;;10.72;96.12;101493.03;5013763;28;20128;-68
2021/10/11 08:53:03;;;;;;;26.33;17.90;;;;;;;10.51;98.01;101490.19;5015248;28;20053;-67
2021/10/11 08:55:47;;;;;;;28.30;18.48;;;;;;;10.80;96.37;101485.31;5000008;28;20056;-70
2021/10/11 08:58:46;;;;;;;25.15;17.45;;;;;;;10.80;100.00;101485.31;5013966;28;20094;-67
2021/10/11 09:01:32;;;;;;;25.40;17.67;;;;;;;10.97;96.80;101480.38;5013901;28;20053;-70
2021/10/11 09:04:17;;;;;;;25.88;16.85;;;;;;;12.51;87.29;101480.31;5013451;28;20546;-70
2021/10/11 09:07:03;;;;;;;22.83;16.48;;;;;;;13.13;80.46;101483.94;5013423;28;20441;-70
2021/10/11 09:09:47;;;;;;;32.50;17.42;;;;;;;13.31;78.33;101485.03;5013700;28;20518;-67
2021/10/11 09:12:31;;;;;;;22.40;16.25;;;;;;;13.31;78.33;101485.03;5013250;28;20049;-70
2021/10/11 09:15:15;;;;;;;26.00;17.58;;;;;;;12.18;83.64;101480.44;5014677;28;20053;-70
2021/10/11 09:18:04;;;;;;;25.02;17.27;;;;;;;12.18;83.64;101480.44;5014602;28;20044;-70
2021/10/11 09:20:48;;;;;;;22.60;16.60;;;;;;;11.62;90.28;101480.63;5013868;28;20076;-69
2021/10/11 09:23:33;;;;;;;24.27;16.58;;;;;;;-139.48;90.28;101480.63;4999403;28;20133;-69
2021/10/11 09:26:19;;;;;;;26.00;17.95;;;;;;;11.20;94.29;101476.81;5013228;28;20507;-70
2021/10/11 09:29:03;;;;;;;22.95;16.65;;;;;;;11.41;95.31;101488.50;5013311;28;20084;-68
2021/10/11 09:31:48;;;;;;;31.20;17.40;;;;;;;12.56;86.16;101487.97;5013009;28;20052;-70
2021/10/11 09:34:32;;;;;;;26.33;16.55;;;;;;;12.79;84.29;101486.91;5013347;28;20096;-70
2021/10/11 09:37:17;;;;;;;24.70;16.45;;;;;;;13.52;77.57;101475.13;5013501;28;20053;-70
2021/10/11 09:40:02;;;;;;;24.90;15.48;;;;;;;13.66;75.20;101480.97;4999672;28;20088;-70
2021/10/11 09:42:46;;;;;;;22.73;15.48;;;;;;;13.40;76.85;101468.16;5014198;28;20076;-69
2021/10/11 09:45:30;;;;;;;22.60;16.70;;;;;;;13.40;76.85;101468.16;5012879;28;20048;-69
2021/10/11 09:48:14;;;;;;;23.38;14.73;;;;;;;13.80;73.59;101477.94;5012702;28;20048;-69
2021/10/11 09:50:58;;;;;;;25.15;15.85;;;;;;;14.93;70.18;101470.19;4999244;28;20075;-68
2021/10/11 09:53:45;;;;;;;20.83;14.95;;;;;;;16.17;63.34;101464.25;5013683;28;20198;-70
2021/10/11 09:56:29;;;;;;;23.58;14.50;;;;;;;-139.48;100.00;61774.03;5012748;28;20053;-69
2021/10/11 09:59:13;;;;;;;22.20;14.77;;;;;;;16.17;63.34;101464.25;5013138;28;20091;-69
2021/10/11 10:01:58;;;;;;;16.33;13.38;;;;;;;18.70;53.68;101447.31;5012760;28;20558;-69
2021/10/11 10:04:42;;;;;;;19.17;14.07;;;;;;;18.38;53.75;101447.28;4998854;28;20068;-69
2021/10/11 10:07:27;;;;;;;22.77;14.45;;;;;;;16.84;57.07;101445.75;5012769;28;20057;-69
2021/10/11 10:10:11;;;;;;;20.40;13.95;;;;;;;-139.48;100.00;61774.03;5012975;28;20048;-69
2021/10/11 10:12:55;;;;;;;22.65;14.90;;;;;;;-139.48;100.00;61774.03;4998675;28;20081;-69
2021/10/11 10:15:39;;;;;;;20.58;14.35;;;;;;;-139.48;100.00;61774.03;5012372;28;20045;-69
2021/10/11 10:18:23;;;;;;;24.30;13.90;;;;;;;-139.48;100.00;61774.03;4998803;28;20458;-69
2021/10/11 10:21:08;;;;;;;25.95;15.20;;;;;;;-139.48;100.00;61774.03;5012851;28;20478;-69
2021/10/11 10:23:56;;;;;;;21.45;13.95;;;;;;;16.84;57.07;101445.75;5011668;28;20557;-69
2021/10/11 10:26:41;;;;;;;21.02;14.95;;;;;;;-139.48;100.00;61774.03;5012489;28;20132;-68
2021/10/11 10:29:26;;;;;;;20.58;14.57;;;;;;;-139.48;100.00;61774.03;5013519;28;20041;-69
2021/10/11 10:32:10;;;;;;;22.95;13.40;;;;;;;18.38;52.94;101431.91;5012906;28;20506;-69
2021/10/11 10:34:59;;;;;;;20.92;13.10;;;;;;;19.26;50.00;101423.81;5012516;28;20049;-69
2021/10/11 10:37:42;;;;;;;24.15;14.57;;;;;;;18.42;52.28;101433.28;4998802;28;20407;-70
2021/10/11 10:40:29;;;;;;;22.40;14.23;;;;;;;17.70;100.00;101429.47;5012264;28;20474;-69
2021/10/11 10:43:16;;;;;;;18.17;13.50;;;;;;;17.24;56.48;101432.59;5012915;28;20415;-68
2021/10/11 10:46:07;;;;;;;17.17;12.55;;;;;;;16.56;59.56;101430.69;5012127;28;20053;-69
2021/10/11 10:48:54;;;;;;;20.40;13.70;;;;;;;15.95;61.74;101424.31;5012186;28;20092;-69
2021/10/11 10:51:41;;;;;;;20.48;13.07;;;;;;;15.80;63.64;101430.34;5012160;28;20148;-70
2021/10/11 10:54:59;;;;;;;20.27;13.85;;;;;;;15.45;66.26;101426.69;5012039;28;20049;-68
2021/10/11 10:57:44;;;;;;;20.45;13.43;;;;;;;15.16;67.04;101424.09;4999515;28;20057;-69
2021/10/11 11:00:28;;;;;;;20.15;12.77;;;;;;;15.36;66.38;101427.56;4998136;28;20052;-69
2021/10/11 11:03:13;;;;;;;19.23;12.60;;;;;;;15.31;68.05;101416.44;5011965;28;20057;-69
2021/10/11 11:06:01;;;;;;;21.17;13.73;;;;;;;-139.48;100.00;61774.03;5012112;28;20053;-69
2021/10/11 11:08:55;;;;;;;18.88;13.75;;;;;;;-139.48;100.00;61774.03;5012860;28;20049;-69
2021/10/11 11:11:47;;;;;;;19.33;13.00;;;;;;;-139.48;100.00;61774.03;5012199;28;20045;-69
2021/10/11 11:14:31;;;;;;;16.73;12.15;;;;;;;-139.48;100.00;61774.03;4998503;28;20108;-69
2021/10/11 11:17:15;;;;;;;16.83;12.20;;;;;;;14.82;71.14;101416.66;5012380;28;20100;-69
2021/10/11 11:20:01;;;;;;;21.73;14.25;;;;;;;14.82;71.38;80839.22;5012853;28;20124;-69
2021/10/11 11:22:45;;;;;;;22.45;14.30;;;;;;;-139.48;100.00;61774.03;5013069;28;20057;-69
2021/10/11 11:25:35;;;;;;;21.95;14.10;;;;;;;-139.48;100.00;61774.03;4997732;28;20081;-69
2021/10/11 11:28:22;;;;;;;21.65;14.38;;;;;;;-139.48;100.00;61774.03;5011746;28;20116;-69
2021/10/11 11:31:10;;;;;;;20.23;12.52;;;;;;;-139.48;100.00;61774.03;4998261;28;20053;-70
2021/10/11 11:33:54;;;;;;;19.13;13.43;;;;;;;-139.48;100.00;61774.03;5011970;28;20052;-68
2021/10/11 11:36:49;;;;;;;23.25;15.13;;;;;;;-139.48;100.00;61774.03;5016009;28;20560;-70
2021/10/11 11:39:33;;;;;;;20.27;14.02;;;;;;;-139.48;100.00;61774.03;5015351;28;20120;-69
2021/10/11 11:42:17;;;;;;;23.10;14.95;;;;;;;-139.48;100.00;61774.03;5015283;28;20112;-70
2021/10/11 11:45:01;;;;;;;23.90;15.13;;;;;;;-139.48;100.00;61774.03;5015058;28;20099;-70
2021/10/11 11:47:44;;;;;;;25.30;15.20;;;;;;;-139.48;100.00;61774.03;5016218;28;20141;-70
2021/10/11 11:50:28;;;;;;;23.95;16.17;;;;;;;-139.48;100.00;61774.03;5015379;28;20127;-70
2021/10/11 11:53:15;;;;;;;24.02;15.40;;;;;;;-139.48;100.00;61774.03;5014966;28;20052;-69
2021/10/11 11:56:00;;;;;;;26.25;17.25;;;;;;;-139.48;100.00;61774.03;5015648;28;20068;-70
2021/10/11 11:58:49;;;;;;;23.25;15.20;;;;;;;-139.48;100.00;61774.03;5014618;28;20111;-69
2021/10/11 12:01:33;;;;;;;24.10;15.70;;;;;;;-139.48;100.00;61774.03;5014517;28;20084;-69
2021/10/11 12:04:18;;;;;;;23.75;16.25;;;;;;;-139.48;100.00;61774.03;5014390;28;20455;-69
2021/10/11 12:07:03;;;;;;;26.73;16.23;;;;;;;-139.48;100.00;61774.03;5015682;28;20056;-69
2021/10/11 12:09:48;;;;;;;24.15;15.27;;;;;;;-139.48;100.00;61774.03;5014540;28;20052;-69
2021/10/11 12:12:33;;;;;;;25.92;15.90;;;;;;;-139.48;100.00;61774.03;5014530;28;20049;-69
2021/10/11 12:15:20;;;;;;;24.67;16.10;;;;;;;-139.48;100.00;61774.03;5014350;28;20048;-70
2021/10/11 12:18:07;;;;;;;26.13;15.85;;;;;;;-139.48;100.00;61774.03;5014612;28;20517;-69
2021/10/11 12:20:51;;;;;;;28.17;15.35;;;;;;;-139.48;100.00;61774.03;5000730;28;20095;-69
2021/10/11 12:23:41;;;;;;;21.30;15.18;;;;;;;-139.48;100.00;61774.03;5014819;28;20415;-69